Time;durP1;ratioP1;P1;durP2;ratioP2;P2;SDS_P1;SDS_P2;PMS_P1;PMS_P2;Temp;Humidity;BMP_temperature;BMP_pressure;BME280_temperature;BME280_humidity;BME280_pressure;Samples;Min_cycle;Max_cycle;Signal;HPM_P1;HPM_P2
2023/12/17 00:00:29;;;;;;;4.30;1.40;;;;;;;;;;5006161;28;92705;-84
2023/12/17 00:02:55;;;;;;;5.15;1.40;;;;;;;;;;5008943;28;95204;-84
2023/12/17 00:05:44;;;;;;;3.00;1.17;;;;;;;;;;4992489;28;92218;-83
2023/12/17 00:08:11;;;;;;;2.47;1.30;;;;;;;;;;5001059;28;99371;-83
2023/12/17 00:10:37;;;;;;;2.88;1.30;;;;;;;;;;5017443;28;93367;-83
2023/12/17 00:13:04;;;;;;;4.53;1.30;;;;;;;;;;5005584;28;91278;-83
2023/12/17 00:15:31;;;;;;;4.15;1.30;;;;;;;;;;5009502;28;92583;-85
2023/12/17 00:17:58;;;;;;;7.13;1.48;;;;;;;;;;5018590;27;92125;-83
2023/12/17 00:20:24;;;;;;;3.92;1.20;;;;;;;;;;5021741;28;94686;-84
2023/12/17 00:22:51;;;;;;;3.17;1.23;;;;;;;;;;5024973;27;98117;-83
2023/12/17 00:25:20;;;;;;;3.70;1.20;;;;;;;;;;5023416;28;92257;-84
2023/12/17 00:27:46;;;;;;;2.78;1.40;;;;;;;;;;5023050;27;92499;-83
2023/12/17 00:30:13;;;;;;;3.92;1.15;;;;;;;;;;5024199;27;92729;-86
2023/12/17 00:32:40;;;;;;;2.72;1.20;;;;;;;;;;5023427;28;92259;-84
2023/12/17 00:35:06;;;;;;;3.95;1.30;;;;;;;;;;5025968;28;92477;-83
2023/12/17 00:37:33;;;;;;;3.10;1.20;;;;;;;;;;5008298;28;91865;-84
2023/12/17 00:39:59;;;;;;;5.00;1.40;;;;;;;;;;4999863;28;92167;-83
2023/12/17 00:42:26;;;;;;;3.92;1.27;;;;;;;;;;4985000;28;92983;-83
2023/12/17 00:44:53;;;;;;;3.78;1.40;;;;;;;;;;4981614;28;94650;-83
2023/12/17 00:47:19;;;;;;;7.57;1.30;;;;;;;;;;4984536;28;94919;-84
2023/12/17 00:49:46;;;;;;;5.07;1.30;;;;;;;;;;4982014;28;94415;-81
2023/12/17 00:52:12;;;;;;;13.70;2.15;;;;;;;;;;5004738;28;92470;-82
2023/12/17 00:54:39;;;;;;;17.00;2.53;;;;;;;;;;5005159;28;92319;-82
2023/12/17 00:57:05;;;;;;;7.38;1.48;;;;;;;;;;5005427;28;93623;-82
2023/12/17 00:59:32;;;;;;;8.00;1.70;;;;;;;;;;5019080;28;92233;-82
2023/12/17 01:01:58;;;;;;;4.97;1.45;;;;;;;;;;5000135;28;92297;-82
2023/12/17 01:04:25;;;;;;;7.82;1.85;;;;;;;;;;4989750;28;92333;-84
2023/12/17 01:06:51;;;;;;;4.75;1.40;;;;;;;;;;5019948;28;94764;-84
2023/12/17 01:09:18;;;;;;;5.05;1.20;;;;;;;;;;5000960;28;95334;-83
2023/12/17 01:11:45;;;;;;;4.75;1.23;;;;;;;;;;5003341;28;92288;-83
2023/12/17 01:14:11;;;;;;;12.90;1.48;;;;;;;;;;5003879;28;92581;-82
2023/12/17 01:16:38;;;;;;;6.40;1.52;;;;;;;;;;5002604;28;95403;-83
2023/12/17 01:19:04;;;;;;;5.10;1.40;;;;;;;;;;5006411;28;92320;-83
2023/12/17 01:21:31;;;;;;;3.28;1.20;;;;;;;;;;5004421;28;92848;-82
2023/12/17 01:23:58;;;;;;;4.82;1.33;;;;;;;;;;5001625;28;92262;-83
2023/12/17 01:26:26;;;;;;;3.75;1.35;;;;;;;;;;5004388;28;91830;-83
2023/12/17 01:28:53;;;;;;;4.28;1.48;;;;;;;;;;5003998;28;92311;-83
2023/12/17 01:31:19;;;;;;;4.88;1.40;;;;;;;;;;5002897;28;92227;-83
2023/12/17 01:33:46;;;;;;;3.60;1.10;;;;;;;;;;5002000;28;94610;-83
2023/12/17 01:36:13;;;;;;;3.47;1.23;;;;;;;;;;5020381;28;92193;-83
2023/12/17 01:38:40;;;;;;;4.32;1.33;;;;;;;;;;5020940;28;92180;-83
2023/12/17 01:41:06;;;;;;;2.70;1.25;;;;;;;;;;5026629;27;92353;-83
2023/12/17 01:43:33;;;;;;;2.72;1.10;;;;;;;;;;5022707;28;92906;-83
2023/12/17 01:46:00;;;;;;;5.70;1.23;;;;;;;;;;5023043;27;92827;-83
2023/12/17 01:48:26;;;;;;;2.45;1.13;;;;;;;;;;5023413;27;93877;-83
2023/12/17 01:50:54;;;;;;;4.28;1.40;;;;;;;;;;5024653;27;92162;-83
2023/12/17 01:53:21;;;;;;;;;;;;;;;;;;5021979;28;93476;-82
2023/12/17 01:55:49;;;;;;;3.25;1.10;;;;;;;;;;5006833;27;92893;-81
2023/12/17 01:58:16;;;;;;;4.20;1.30;;;;;;;;;;5001867;28;94723;-82
2023/12/17 02:00:42;;;;;;;;;;;;;;;;;;5003854;28;96344;-83
2023/12/17 02:03:11;;;;;;;3.10;1.15;;;;;;;;;;4997708;28;92652;-82
2023/12/17 02:05:38;;;;;;;2.88;1.10;;;;;;;;;;5002962;28;92090;-83
2023/12/17 02:08:05;;;;;;;2.97;1.10;;;;;;;;;;5001965;28;92666;-82
2023/12/17 02:10:31;;;;;;;3.25;1.10;;;;;;;;;;5003655;28;92124;-83
2023/12/17 02:12:58;;;;;;;2.63;1.02;;;;;;;;;;5002123;28;94745;-82
2023/12/17 02:15:24;;;;;;;3.20;1.10;;;;;;;;;;5003383;28;92954;-82
2023/12/17 02:17:51;;;;;;;2.85;1.00;;;;;;;;;;5002996;28;93920;-82
2023/12/17 02:20:19;;;;;;;4.18;1.35;;;;;;;;;;5003589;28;92724;-83
2023/12/17 02:22:45;;;;;;;;;;;;;;;;;;4999872;28;95178;-82
2023/12/17 02:25:12;;;;;;;11.00;1.30;;;;;;;;;;5006389;28;92547;-84
2023/12/17 02:27:39;;;;;;;5.70;1.30;;;;;;;;;;5002936;28;93043;-83
2023/12/17 02:30:10;;;;;;;5.43;1.30;;;;;;;;;;5002156;28;92142;-83
2023/12/17 02:32:39;;;;;;;5.78;1.10;;;;;;;;;;5001934;28;93410;-84
2023/12/17 02:35:06;;;;;;;4.88;1.00;;;;;;;;;;5002452;28;92619;-83
2023/12/17 02:37:32;;;;;;;5.43;1.20;;;;;;;;;;5003601;28;92167;-84
2023/12/17 02:40:02;;;;;;;3.78;1.27;;;;;;;;;;5002027;28;92356;-85
2023/12/17 02:42:29;;;;;;;5.20;1.10;;;;;;;;;;5002940;27;92505;-84
2023/12/17 02:44:55;;;;;;;4.32;1.10;;;;;;;;;;5004483;28;92236;-84
2023/12/17 02:47:22;;;;;;;2.95;1.20;;;;;;;;;;5000997;27;95077;-83
2023/12/17 02:49:48;;;;;;;2.22;1.00;;;;;;;;;;5001135;27;92237;-83
2023/12/17 02:52:15;;;;;;;4.05;1.10;;;;;;;;;;5003254;28;93590;-84
2023/12/17 02:54:42;;;;;;;4.82;1.10;;;;;;;;;;5009523;28;95340;-84
2023/12/17 02:57:08;;;;;;;3.25;1.10;;;;;;;;;;5010872;28;92518;-84
2023/12/17 02:59:35;;;;;;;2.83;1.20;;;;;;;;;;4984402;28;95326;-84
2023/12/17 03:02:01;;;;;;;2.58;1.00;;;;;;;;;;4997710;28;94844;-84
2023/12/17 03:04:28;;;;;;;3.33;1.10;;;;;;;;;;4986749;28;91330;-84
2023/12/17 03:06:54;;;;;;;3.15;1.10;;;;;;;;;;4995299;28;92463;-83
2023/12/17 03:09:27;;;;;;;2.30;1.05;;;;;;;;;;4993141;28;92498;-83
2023/12/17 03:11:58;;;;;;;2.97;1.10;;;;;;;;;;4988826;28;94648;-83
2023/12/17 03:14:25;;;;;;;2.25;1.00;;;;;;;;;;5000181;28;92267;-84
2023/12/17 03:16:54;;;;;;;2.65;1.00;;;;;;;;;;5001250;28;92030;-84
2023/12/17 03:19:21;;;;;;;3.70;1.10;;;;;;;;;;5000763;28;95225;-83
2023/12/17 03:21:48;;;;;;;4.03;1.00;;;;;;;;;;5001094;28;94455;-83
2023/12/17 03:24:15;;;;;;;2.88;0.95;;;;;;;;;;5001720;28;92242;-83
2023/12/17 03:26:44;;;;;;;3.60;1.00;;;;;;;;;;5001326;28;92395;-84
2023/12/17 03:29:14;;;;;;;2.50;0.90;;;;;;;;;;5005190;28;91989;-84
2023/12/17 03:31:40;;;;;;;4.05;1.00;;;;;;;;;;5001401;28;92678;-81
2023/12/17 03:34:07;;;;;;;3.67;1.00;;;;;;;;;;5001953;28;97460;-82
2023/12/17 03:36:34;;;;;;;2.22;0.90;;;;;;;;;;5000453;28;94654;-83
2023/12/17 03:39:03;;;;;;;2.75;1.00;;;;;;;;;;5000158;28;94136;-82
2023/12/17 03:41:31;;;;;;;2.25;0.88;;;;;;;;;;5002002;28;92652;-83
2023/12/17 03:43:59;;;;;;;2.58;0.82;;;;;;;;;;5000429;28;92181;-83
2023/12/17 03:46:26;;;;;;;4.43;1.20;;;;;;;;;;5001967;28;92788;-82
2023/12/17 03:48:53;;;;;;;2.42;1.05;;;;;;;;;;5001746;28;92774;-83
2023/12/17 03:51:20;;;;;;;2.28;1.00;;;;;;;;;;5004573;28;92029;-83
2023/12/17 03:53:47;;;;;;;2.33;1.00;;;;;;;;;;5000071;28;92179;-81
2023/12/17 03:56:15;;;;;;;3.83;1.10;;;;;;;;;;5000329;28;92192;-84
2023/12/17 03:58:43;;;;;;;5.03;1.30;;;;;;;;;;5000800;28;94444;-83
2023/12/17 04:01:10;;;;;;;6.50;1.55;;;;;;;;;;4999125;28;97996;-83
2023/12/17 04:03:40;;;;;;;4.15;1.20;;;;;;;;;;4995640;28;92357;-83
2023/12/17 04:06:09;;;;;;;4.50;1.23;;;;;;;;;;5005047;28;96669;-83
2023/12/17 04:08:36;;;;;;;4.07;1.20;;;;;;;;;;5005111;28;92468;-84
2023/12/17 04:11:03;;;;;;;3.75;1.40;;;;;;;;;;5006232;28;92013;-83
2023/12/17 04:13:29;;;;;;;5.20;1.30;;;;;;;;;;5006783;28;94792;-83
2023/12/17 04:15:56;;;;;;;3.83;1.35;;;;;;;;;;5004950;28;94116;-80
2023/12/17 04:18:22;;;;;;;4.03;1.35;;;;;;;;;;5005050;28;93016;-82
2023/12/17 04:20:49;;;;;;;3.75;1.23;;;;;;;;;;5003846;28;94663;-81
2023/12/17 04:23:16;;;;;;;5.78;1.60;;;;;;;;;;5003785;28;98889;-82
2023/12/17 04:25:42;;;;;;;4.47;1.25;;;;;;;;;;5002009;28;95218;-81
2023/12/17 04:28:09;;;;;;;9.82;1.40;;;;;;;;;;5004610;28;93033;-82
2023/12/17 04:30:35;;;;;;;4.18;1.30;;;;;;;;;;5004625;28;92113;-82
2023/12/17 04:33:02;;;;;;;3.30;1.58;;;;;;;;;;5007821;28;92142;-81
2023/12/17 04:35:29;;;;;;;4.80;1.35;;;;;;;;;;5005292;28;92355;-82
2023/12/17 04:37:56;;;;;;;4.60;1.23;;;;;;;;;;5003245;28;93253;-83
2023/12/17 04:40:22;;;;;;;4.57;1.30;;;;;;;;;;5003442;28;95125;-83
2023/12/17 04:42:49;;;;;;;4.90;1.40;;;;;;;;;;5005859;27;91842;-83
2023/12/17 04:45:15;;;;;;;5.15;1.48;;;;;;;;;;5004002;27;91903;-82
2023/12/17 04:47:42;;;;;;;4.10;1.60;;;;;;;;;;5004177;27;92994;-82
2023/12/17 04:50:09;;;;;;;6.10;1.48;;;;;;;;;;5000986;28;94765;-83
2023/12/17 04:52:36;;;;;;;2.95;1.05;;;;;;;;;;5012569;28;94834;-82
2023/12/17 04:55:05;;;;;;;4.28;1.20;;;;;;;;;;5015943;28;92756;-83
2023/12/17 04:57:32;;;;;;;2.95;1.25;;;;;;;;;;5004972;28;92583;-83
2023/12/17 05:00:00;;;;;;;3.85;1.40;;;;;;;;;;4988127;28;95826;-83
2023/12/17 05:02:38;;;;;;;6.15;1.20;;;;;;;;;;5007151;28;92230;-82
2023/12/17 05:05:05;;;;;;;3.80;1.40;;;;;;;;;;5002073;28;95290;-82
2023/12/17 05:07:34;;;;;;;3.80;1.20;;;;;;;;;;5009741;28;92037;-82
2023/12/17 05:10:04;;;;;;;4.55;1.30;;;;;;;;;;5004001;28;93431;-82
2023/12/17 05:12:31;;;;;;;5.32;1.42;;;;;;;;;;5002551;28;94441;-82
2023/12/17 05:15:00;;;;;;;3.25;1.33;;;;;;;;;;5016392;28;94939;-81
2023/12/17 05:17:33;;;;;;;4.50;1.17;;;;;;;;;;5006998;28;92503;-83
2023/12/17 05:20:00;;;;;;;6.22;1.50;;;;;;;;;;5002773;28;92662;-82
2023/12/17 05:22:27;;;;;;;4.28;1.30;;;;;;;;;;5019713;28;92271;-81
2023/12/17 05:24:53;;;;;;;2.60;1.00;;;;;;;;;;4982297;28;94285;-82
2023/12/17 05:27:20;;;;;;;6.55;1.38;;;;;;;;;;5006045;28;95171;-81
2023/12/17 05:29:47;;;;;;;3.58;1.13;;;;;;;;;;5001198;28;92304;-80
2023/12/17 05:32:14;;;;;;;3.15;1.38;;;;;;;;;;5004205;28;92314;-82
2023/12/17 05:34:40;;;;;;;6.30;1.38;;;;;;;;;;5002966;28;92237;-81
2023/12/17 05:37:07;;;;;;;4.13;1.10;;;;;;;;;;5003620;28;92040;-81
2023/12/17 05:39:34;;;;;;;4.38;1.25;;;;;;;;;;5003404;28;94736;-82
2023/12/17 05:42:00;;;;;;;5.28;1.20;;;;;;;;;;5022024;27;92383;-82
2023/12/17 05:44:27;;;;;;;4.20;1.30;;;;;;;;;;5023582;27;92400;-81
2023/12/17 05:46:53;;;;;;;3.05;1.20;;;;;;;;;;5022034;28;93355;-82
2023/12/17 05:49:20;;;;;;;3.08;1.50;;;;;;;;;;5008195;28;93282;-82
2023/12/17 05:51:47;;;;;;;4.20;1.52;;;;;;;;;;5003105;28;92482;-83
2023/12/17 05:54:17;;;;;;;4.22;1.33;;;;;;;;;;5001254;28;92703;-84
2023/12/17 05:56:44;;;;;;;6.25;1.60;;;;;;;;;;5002573;28;91580;-83
2023/12/17 05:59:11;;;;;;;5.18;1.50;;;;;;;;;;5002889;28;92122;-83
2023/12/17 06:01:37;;;;;;;4.38;1.20;;;;;;;;;;5007724;28;93138;-83
2023/12/17 06:04:04;;;;;;;4.38;1.60;;;;;;;;;;5000841;27;94492;-83
2023/12/17 06:06:30;;;;;;;5.80;1.50;;;;;;;;;;5003782;28;93046;-84
2023/12/17 06:08:57;;;;;;;6.05;1.42;;;;;;;;;;5001909;28;92115;-84
2023/12/17 06:11:24;;;;;;;5.07;1.70;;;;;;;;;;5027609;28;92526;-83
2023/12/17 06:13:51;;;;;;;5.25;1.70;;;;;;;;;;5020146;28;94681;-82
2023/12/17 06:16:17;;;;;;;5.88;2.13;;;;;;;;;;5023556;28;92112;-85
2023/12/17 06:18:44;;;;;;;6.50;2.30;;;;;;;;;;5022755;28;92403;-83
2023/12/17 06:21:20;;;;;;;7.32;1.90;;;;;;;;;;5021905;28;95194;-83
2023/12/17 06:23:46;;;;;;;6.35;2.08;;;;;;;;;;5023617;28;92305;-82
2023/12/17 06:26:13;;;;;;;5.95;1.90;;;;;;;;;;5012145;28;92635;-83
2023/12/17 06:28:40;;;;;;;6.05;1.75;;;;;;;;;;5007301;28;94594;-84
2023/12/17 06:31:07;;;;;;;6.22;2.40;;;;;;;;;;5022037;28;96979;-84
2023/12/17 06:33:36;;;;;;;7.28;2.33;;;;;;;;;;5022408;28;94436;-83
2023/12/17 06:36:03;;;;;;;6.68;2.60;;;;;;;;;;5014183;28;92773;-83
2023/12/17 06:38:30;;;;;;;7.35;2.25;;;;;;;;;;5022575;28;92439;-83
2023/12/17 06:40:57;;;;;;;9.25;3.65;;;;;;;;;;5004905;28;93454;-82
2023/12/17 06:43:24;;;;;;;8.02;2.78;;;;;;;;;;5004898;28;92856;-82
2023/12/17 06:45:54;;;;;;;8.15;3.00;;;;;;;;;;5001541;28;91978;-82
2023/12/17 06:48:21;;;;;;;7.43;2.92;;;;;;;;;;5000746;28;92501;-83
2023/12/17 06:50:47;;;;;;;10.18;3.30;;;;;;;;;;5002176;28;92173;-82
2023/12/17 06:53:16;;;;;;;8.48;3.08;;;;;;;;;;4982503;28;97838;-82
2023/12/17 06:55:43;;;;;;;8.05;3.40;;;;;;;;;;5002031;28;92208;-82
2023/12/17 06:58:11;;;;;;;10.75;4.05;;;;;;;;;;5018310;28;92719;-83
2023/12/17 07:00:37;;;;;;;7.53;3.17;;;;;;;;;;5025247;28;92311;-83
2023/12/17 07:03:04;;;;;;;9.00;3.60;;;;;;;;;;5001372;28;92140;-82
2023/12/17 07:05:30;;;;;;;9.23;3.08;;;;;;;;;;5002736;28;95018;-84
2023/12/17 07:07:57;;;;;;;9.73;3.78;;;;;;;;;;5001663;28;92355;-83
2023/12/17 07:10:23;;;;;;;8.77;3.15;;;;;;;;;;5002467;28;92779;-83
2023/12/17 07:12:50;;;;;;;9.18;4.18;;;;;;;;;;5000966;28;94717;-83
2023/12/17 07:15:18;;;;;;;9.65;3.80;;;;;;;;;;5002701;28;92186;-83
2023/12/17 07:17:44;;;;;;;;;;;;;;;;;;4983216;28;94775;-83
2023/12/17 07:20:11;;;;;;;11.07;4.10;;;;;;;;;;5002959;28;112154;-83
2023/12/17 07:22:38;;;;;;;9.30;3.90;;;;;;;;;;5018800;28;92103;-84
2023/12/17 07:25:05;;;;;;;8.60;3.70;;;;;;;;;;5017331;28;94464;-83
2023/12/17 07:27:31;;;;;;;10.20;3.60;;;;;;;;;;5005416;28;92688;-83
2023/12/17 07:29:58;;;;;;;13.02;3.92;;;;;;;;;;5001189;28;93342;-81
2023/12/17 07:32:25;;;;;;;8.88;3.58;;;;;;;;;;5002346;28;92718;-81
2023/12/17 07:34:51;;;;;;;8.65;3.45;;;;;;;;;;5017944;28;91429;-81
2023/12/17 07:37:18;;;;;;;9.60;3.63;;;;;;;;;;5003507;28;92759;-79
2023/12/17 07:39:44;;;;;;;9.18;3.33;;;;;;;;;;5004804;27;94034;-81
2023/12/17 07:42:11;;;;;;;8.20;3.20;;;;;;;;;;5000355;28;96051;-80
2023/12/17 07:44:37;;;;;;;8.55;3.53;;;;;;;;;;5003027;28;94747;-80
2023/12/17 07:47:05;;;;;;;8.27;3.25;;;;;;;;;;5023716;28;92816;-81
2023/12/17 07:49:32;;;;;;;9.75;3.50;;;;;;;;;;5026344;28;92307;-81
2023/12/17 07:52:02;;;;;;;6.75;3.20;;;;;;;;;;5022429;27;95711;-81
2023/12/17 07:54:29;;;;;;;8.07;3.60;;;;;;;;;;5024699;27;92845;-82
2023/12/17 07:56:56;;;;;;;8.38;3.00;;;;;;;;;;5023567;28;95174;-83
2023/12/17 07:59:22;;;;;;;7.10;3.10;;;;;;;;;;5024697;28;93048;-83
2023/12/17 08:01:49;;;;;;;8.02;3.15;;;;;;;;;;5024683;27;92124;-83
2023/12/17 08:04:16;;;;;;;8.57;3.00;;;;;;;;;;5025175;28;92443;-84
2023/12/17 08:06:43;;;;;;;7.55;3.03;;;;;;;;;;5022211;28;96850;-84
2023/12/17 08:09:10;;;;;;;5.93;2.70;;;;;;;;;;5007029;28;92385;-84
2023/12/17 08:11:37;;;;;;;7.18;2.50;;;;;;;;;;5026419;28;95411;-84
2023/12/17 08:14:03;;;;;;;8.70;2.85;;;;;;;;;;5024384;28;93397;-84
2023/12/17 08:16:30;;;;;;;6.57;2.65;;;;;;;;;;5024848;28;92462;-84
2023/12/17 08:18:56;;;;;;;6.05;2.30;;;;;;;;;;5025262;28;93261;-84
2023/12/17 08:21:23;;;;;;;6.45;2.40;;;;;;;;;;5024791;28;92098;-84
2023/12/17 08:23:50;;;;;;;5.00;2.13;;;;;;;;;;5023030;28;94572;-83
2023/12/17 08:26:16;;;;;;;7.50;2.65;;;;;;;;;;5024785;28;91948;-83
2023/12/17 08:28:43;;;;;;;8.13;2.28;;;;;;;;;;5023479;28;92380;-83
2023/12/17 08:31:10;;;;;;;7.00;2.42;;;;;;;;;;5022887;28;94814;-83
2023/12/17 08:33:37;;;;;;;5.55;2.42;;;;;;;;;;5027914;28;92719;-83
2023/12/17 08:36:04;;;;;;;6.38;2.55;;;;;;;;;;5024624;28;92415;-84
2023/12/17 08:38:31;;;;;;;;;;;;;;;;;;5023443;28;94964;-84
2023/12/17 08:40:58;;;;;;;5.85;2.33;;;;;;;;;;5027010;27;92165;-84
2023/12/17 08:43:24;;;;;;;7.38;2.70;;;;;;;;;;5023506;28;95309;-85
2023/12/17 08:45:51;;;;;;;5.65;2.53;;;;;;;;;;5020371;27;93030;-84
2023/12/17 08:48:17;;;;;;;5.97;2.53;;;;;;;;;;5025061;27;91971;-83
2023/12/17 08:50:44;;;;;;;6.15;2.75;;;;;;;;;;5005833;28;92313;-84
2023/12/17 08:53:11;;;;;;;9.32;3.00;;;;;;;;;;5008128;28;93149;-85
2023/12/17 08:55:37;;;;;;;13.50;3.05;;;;;;;;;;5022182;28;94413;-84
2023/12/17 08:58:04;;;;;;;7.28;2.60;;;;;;;;;;5004270;27;95465;-84
2023/12/17 09:00:31;;;;;;;6.40;2.90;;;;;;;;;;5023342;27;92227;-84
2023/12/17 09:02:57;;;;;;;7.05;3.00;;;;;;;;;;5024256;27;92754;-84
2023/12/17 09:05:24;;;;;;;6.50;2.78;;;;;;;;;;5005328;28;95085;-84
2023/12/17 09:07:51;;;;;;;6.28;2.58;;;;;;;;;;5023209;28;92388;-84
2023/12/17 09:10:22;;;;;;;6.35;2.70;;;;;;;;;;5022151;28;95195;-83
2023/12/17 09:12:50;;;;;;;6.88;2.70;;;;;;;;;;5024191;28;91802;-83
2023/12/17 09:15:16;;;;;;;5.78;2.78;;;;;;;;;;5026358;28;92082;-84
2023/12/17 09:17:43;;;;;;;7.70;3.00;;;;;;;;;;5021876;28;94466;-83
2023/12/17 09:20:12;;;;;;;8.48;3.00;;;;;;;;;;5020250;28;95013;-84
2023/12/17 09:22:38;;;;;;;;;;;;;;;;;;5024578;28;95827;-85
2023/12/17 09:25:05;;;;;;;7.57;3.40;;;;;;;;;;5024898;28;93500;-85
2023/12/17 09:27:35;;;;;;;9.38;3.25;;;;;;;;;;5023127;28;92023;-85
2023/12/17 09:30:06;;;;;;;8.85;3.45;;;;;;;;;;5022317;28;94111;-85
2023/12/17 09:32:35;;;;;;;7.75;3.80;;;;;;;;;;5005719;28;95864;-85
2023/12/17 09:35:02;;;;;;;8.18;3.95;;;;;;;;;;5022218;28;92231;-86
2023/12/17 09:37:28;;;;;;;8.48;4.07;;;;;;;;;;5027115;28;94328;-85
2023/12/17 09:39:55;;;;;;;7.68;3.80;;;;;;;;;;5017931;28;92275;-85
2023/12/17 09:42:22;;;;;;;7.88;3.72;;;;;;;;;;5018079;27;92250;-85
2023/12/17 09:44:49;;;;;;;;;;;;;;;;;;5022341;27;95501;-85
2023/12/17 09:47:15;;;;;;;7.32;3.38;;;;;;;;;;5023400;28;98723;-85
2023/12/17 09:49:44;;;;;;;9.07;3.40;;;;;;;;;;5022380;27;92595;-85
2023/12/17 09:52:12;;;;;;;8.30;3.78;;;;;;;;;;5021690;28;92714;-84
2023/12/17 09:54:39;;;;;;;7.80;3.10;;;;;;;;;;5021945;28;92665;-85
2023/12/17 09:57:06;;;;;;;8.57;3.10;;;;;;;;;;5022953;28;92455;-85
2023/12/17 09:59:33;;;;;;;;;;;;;;;;;;5024199;28;92721;-82
2023/12/17 10:01:59;;;;;;;9.65;3.28;;;;;;;;;;5022939;27;115170;-84
2023/12/17 10:04:26;;;;;;;6.25;2.92;;;;;;;;;;5015711;27;92723;-83
2023/12/17 10:06:53;;;;;;;6.50;2.92;;;;;;;;;;5002492;28;92007;-84
2023/12/17 10:09:20;;;;;;;8.50;2.72;;;;;;;;;;5001582;28;94992;-82
2023/12/17 10:11:47;;;;;;;7.25;3.20;;;;;;;;;;5001072;28;92740;-84
2023/12/17 10:14:23;;;;;;;6.75;3.03;;;;;;;;;;5001128;28;92252;-82
2023/12/17 10:16:51;;;;;;;9.93;3.45;;;;;;;;;;5000704;28;92550;-83
2023/12/17 10:19:17;;;;;;;7.65;3.40;;;;;;;;;;5001700;28;93008;-81
2023/12/17 10:21:47;;;;;;;7.88;3.40;;;;;;;;;;5003964;28;92665;-84
2023/12/17 10:24:14;;;;;;;7.82;3.55;;;;;;;;;;4998624;28;95073;-85
2023/12/17 10:26:43;;;;;;;7.10;3.35;;;;;;;;;;4984705;28;91694;-85
2023/12/17 10:29:13;;;;;;;9.05;3.83;;;;;;;;;;5013209;28;95337;-85
2023/12/17 10:31:41;;;;;;;7.93;3.80;;;;;;;;;;5020992;28;95337;-85
2023/12/17 10:34:22;;;;;;;8.10;4.05;;;;;;;;;;5000675;28;94993;-87
2023/12/17 10:36:50;;;;;;;10.23;3.45;;;;;;;;;;5021613;28;97973;-84
2023/12/17 10:39:16;;;;;;;;;;;;;;;;;;5022735;27;92747;-83
2023/12/17 10:41:43;;;;;;;8.70;3.88;;;;;;;;;;5003457;28;100688;-84
2023/12/17 10:44:11;;;;;;;7.70;3.80;;;;;;;;;;5005434;28;92568;-84
2023/12/17 10:46:42;;;;;;;8.20;3.97;;;;;;;;;;5000967;28;92183;-83
2023/12/17 10:49:09;;;;;;;8.68;3.63;;;;;;;;;;5000896;28;94023;-86
2023/12/17 10:51:41;;;;;;;8.73;3.70;;;;;;;;;;4993973;28;94135;-83
2023/12/17 10:54:13;;;;;;;10.90;4.05;;;;;;;;;;5000315;28;92262;-86
2023/12/17 10:56:52;;;;;;;15.15;4.93;;;;;;;;;;5001255;28;92100;-84
2023/12/17 10:59:24;;;;;;;17.27;4.97;;;;;;;;;;4972940;28;96333;-82
2023/12/17 11:02:04;;;;;;;16.30;5.10;;;;;;;;;;5000519;28;92176;-82
2023/12/17 11:04:30;;;;;;;19.30;4.82;;;;;;;;;;5002133;28;92621;-83
2023/12/17 11:06:57;;;;;;;21.60;13.45;;;;;;;;;;4983695;28;92132;-85
2023/12/17 11:09:26;;;;;;;22.95;11.02;;;;;;;;;;5002248;28;92334;-86
2023/12/17 11:11:54;;;;;;;17.05;6.93;;;;;;;;;;5000826;28;93070;-85
2023/12/17 11:14:20;;;;;;;16.95;5.68;;;;;;;;;;4988182;28;92537;-85
2023/12/17 11:16:47;;;;;;;12.43;5.43;;;;;;;;;;5007430;28;92861;-85
2023/12/17 11:19:14;;;;;;;20.35;6.10;;;;;;;;;;5004136;28;95920;-85
2023/12/17 11:21:42;;;;;;;13.57;5.70;;;;;;;;;;5005394;28;92598;-85
2023/12/17 11:24:11;;;;;;;12.88;5.60;;;;;;;;;;5003087;28;96805;-84
2023/12/17 11:26:40;;;;;;;12.35;5.60;;;;;;;;;;5008036;28;92757;-84
2023/12/17 11:29:34;;;;;;;14.40;5.93;;;;;;;;;;5004074;28;94386;-84
2023/12/17 11:32:04;;;;;;;14.95;5.97;;;;;;;;;;4974981;28;93513;-85
2023/12/17 11:34:32;;;;;;;12.27;5.97;;;;;;;;;;5001586;28;101024;-84
2023/12/17 11:37:03;;;;;;;13.45;5.93;;;;;;;;;;4999735;28;92458;-83
2023/12/17 11:39:34;;;;;;;12.65;5.93;;;;;;;;;;4996498;28;93032;-84
2023/12/17 11:42:04;;;;;;;12.32;5.80;;;;;;;;;;4982973;28;91946;-85
2023/12/17 11:44:32;;;;;;;13.60;5.80;;;;;;;;;;5012339;28;92222;-82
2023/12/17 11:47:04;;;;;;;11.68;5.80;;;;;;;;;;4984018;28;93159;-84
2023/12/17 11:49:31;;;;;;;12.73;5.20;;;;;;;;;;4986157;28;94698;-82
2023/12/17 11:52:20;;;;;;;11.00;5.55;;;;;;;;;;4976902;28;93136;-83
2023/12/17 11:54:56;;;;;;;12.63;5.07;;;;;;;;;;4994975;28;92358;-84
2023/12/17 11:57:28;;;;;;;10.82;4.70;;;;;;;;;;4984454;28;93803;-83
2023/12/17 11:59:58;;;;;;;11.85;5.50;;;;;;;;;;4972782;28;95293;-83
2023/12/17 12:02:37;;;;;;;9.95;4.90;;;;;;;;;;4984975;28;92835;-83
2023/12/17 12:05:15;;;;;;;11.30;5.15;;;;;;;;;;4992180;28;92610;-82
2023/12/17 12:07:47;;;;;;;10.75;5.57;;;;;;;;;;5002005;28;94526;-81
2023/12/17 12:10:17;;;;;;;9.23;4.72;;;;;;;;;;4998560;28;91914;-81
2023/12/17 12:12:46;;;;;;;12.50;5.13;;;;;;;;;;4990417;28;93607;-83
2023/12/17 12:15:13;;;;;;;10.25;4.88;;;;;;;;;;4976727;28;94590;-82
2023/12/17 12:17:41;;;;;;;10.20;5.18;;;;;;;;;;5004243;28;95640;-83
2023/12/17 12:20:15;;;;;;;11.65;5.05;;;;;;;;;;5018320;28;99299;-85
2023/12/17 12:22:43;;;;;;;11.02;5.10;;;;;;;;;;4991913;28;92209;-85
2023/12/17 12:25:18;;;;;;;10.88;4.82;;;;;;;;;;5003364;28;92563;-84
2023/12/17 12:27:45;;;;;;;10.35;5.00;;;;;;;;;;5002725;28;94713;-85
2023/12/17 12:30:25;;;;;;;8.98;4.75;;;;;;;;;;5004956;28;94299;-85
2023/12/17 12:32:52;;;;;;;8.35;4.40;;;;;;;;;;5013746;28;94930;-85
2023/12/17 12:35:21;;;;;;;9.38;4.25;;;;;;;;;;5025469;28;92384;-85
2023/12/17 12:37:48;;;;;;;8.75;4.47;;;;;;;;;;4995013;28;92685;-83
2023/12/17 12:40:15;;;;;;;9.35;4.00;;;;;;;;;;4994633;28;95277;-84
2023/12/17 12:42:43;;;;;;;10.60;4.75;;;;;;;;;;5003247;28;92428;-83
2023/12/17 12:45:10;;;;;;;10.38;4.35;;;;;;;;;;5002949;28;92456;-84
2023/12/17 12:47:37;;;;;;;;;;;;;;;;;;5005028;28;93384;-83
2023/12/17 12:50:04;;;;;;;9.20;4.32;;;;;;;;;;5003327;28;96931;-84
2023/12/17 12:52:31;;;;;;;9.75;4.25;;;;;;;;;;5009868;28;92641;-84
2023/12/17 12:54:58;;;;;;;10.93;4.40;;;;;;;;;;5023006;28;95816;-83
2023/12/17 12:57:25;;;;;;;9.77;4.30;;;;;;;;;;5005674;28;91612;-85
2023/12/17 12:59:52;;;;;;;;;;;;;;;;;;5004846;28;93477;-83
2023/12/17 13:02:18;;;;;;;10.52;4.70;;;;;;;;;;5020073;27;92083;-82
2023/12/17 13:04:45;;;;;;;9.52;4.03;;;;;;;;;;5012880;28;94558;-82
2023/12/17 13:07:13;;;;;;;9.60;4.10;;;;;;;;;;4985939;28;95316;-83
2023/12/17 13:09:39;;;;;;;;;;;;;;;;;;4993135;28;92223;-84
2023/12/17 13:12:18;;;;;;;12.27;4.45;;;;;;;;;;5004129;28;96837;-85
2023/12/17 13:14:45;;;;;;;9.50;3.90;;;;;;;;;;4984837;28;94912;-85
2023/12/17 13:17:12;;;;;;;10.30;4.30;;;;;;;;;;5007215;28;92249;-85
2023/12/17 13:19:39;;;;;;;8.98;3.28;;;;;;;;;;5017810;28;92793;-84
2023/12/17 13:22:06;;;;;;;10.68;3.65;;;;;;;;;;5021409;28;91808;-84
2023/12/17 13:24:33;;;;;;;;;;;;;;;;;;5022796;28;92810;-85
2023/12/17 13:27:02;;;;;;;9.93;3.60;;;;;;;;;;5025739;28;92571;-85
2023/12/17 13:29:29;;;;;;;9.73;3.53;;;;;;;;;;4983383;28;94662;-85
2023/12/17 13:31:55;;;;;;;11.48;3.90;;;;;;;;;;5022717;28;95253;-84
2023/12/17 13:34:22;;;;;;;9.30;3.88;;;;;;;;;;5022346;28;92754;-85
2023/12/17 13:36:49;;;;;;;11.43;3.42;;;;;;;;;;5018491;28;92318;-85
2023/12/17 13:39:16;;;;;;;9.00;3.90;;;;;;;;;;5006020;28;94006;-85
2023/12/17 13:41:43;;;;;;;;;;;;;;;;;;4996160;28;92488;-83
2023/12/17 13:44:14;;;;;;;9.02;3.90;;;;;;;;;;5002721;28;95033;-85
2023/12/17 13:46:44;;;;;;;9.95;3.55;;;;;;;;;;5002954;28;91335;-83
2023/12/17 13:49:11;;;;;;;11.77;3.80;;;;;;;;;;5002595;28;92410;-83
2023/12/17 13:51:38;;;;;;;9.77;3.20;;;;;;;;;;5001154;28;95064;-83
2023/12/17 13:54:06;;;;;;;7.05;2.90;;;;;;;;;;4982106;28;95637;-83
2023/12/17 13:56:37;;;;;;;7.93;3.28;;;;;;;;;;5000816;28;92685;-86
2023/12/17 13:59:10;;;;;;;7.68;3.10;;;;;;;;;;5001822;28;94822;-84
2023/12/17 14:01:38;;;;;;;8.88;3.20;;;;;;;;;;4995830;28;92778;-85
2023/12/17 14:04:05;;;;;;;11.10;3.38;;;;;;;;;;5001007;28;93310;-84
2023/12/17 14:06:31;;;;;;;10.38;3.67;;;;;;;;;;5002497;28;92385;-83
2023/12/17 14:09:01;;;;;;;9.88;3.33;;;;;;;;;;5003220;28;92300;-85
2023/12/17 14:11:30;;;;;;;10.90;3.90;;;;;;;;;;5004141;28;92437;-83
2023/12/17 14:14:00;;;;;;;8.38;3.00;;;;;;;;;;5001401;28;92634;-83
2023/12/17 14:16:30;;;;;;;13.18;3.42;;;;;;;;;;5002297;28;92223;-82
2023/12/17 14:19:02;;;;;;;8.93;3.17;;;;;;;;;;5000085;28;94714;-82
2023/12/17 14:21:29;;;;;;;10.07;3.20;;;;;;;;;;5001261;28;93413;-81
2023/12/17 14:23:56;;;;;;;9.73;3.28;;;;;;;;;;5004503;28;92019;-82
2023/12/17 14:26:22;;;;;;;10.05;3.40;;;;;;;;;;5001990;28;92545;-82
2023/12/17 14:28:49;;;;;;;11.18;3.22;;;;;;;;;;5001794;28;92605;-82
2023/12/17 14:31:16;;;;;;;7.78;2.90;;;;;;;;;;5001037;28;92499;-81
2023/12/17 14:33:43;;;;;;;;;;;;;;;;;;4999402;28;94381;-82
2023/12/17 14:36:09;;;;;;;10.77;3.30;;;;;;;;;;5005428;28;98779;-82
2023/12/17 14:38:37;;;;;;;8.10;3.00;;;;;;;;;;5013797;28;94675;-83
2023/12/17 14:41:04;;;;;;;8.23;3.00;;;;;;;;;;5001712;28;93060;-83
2023/12/17 14:43:30;;;;;;;10.13;2.90;;;;;;;;;;5012991;28;94717;-82
2023/12/17 14:45:57;;;;;;;9.45;3.05;;;;;;;;;;5003792;28;95118;-82
2023/12/17 14:48:24;;;;;;;6.22;2.50;;;;;;;;;;5007531;28;92342;-82